Metar Aviation Weather Data LFTW

12°C Temp
3°C Dewpoint
% Humidity
Temperature
21 KM/H
13 MPH
11 KTS
30°
North North
East

Wind Speed
Clear
Conditions
Pressure 1010.92 (hPa) - 29.85 (in)
Visibility 6.2 (mi) - 10.0 (km)

Current Conditions
LFTW
Metar :LFTW 181430Z AUTO 03011KT 010V070 CAVOK 12/03 Q1011 NOSIG
Mon 18th November 16:30 pm

  Metar Aviation API Data Provided by https://www.checkwx.com/ PHP scripts by weather34.com ©2019